createdAt,value
2018-08-08T00:07:51.238Z,1001.0
2018-08-08T00:18:05.842Z,1001.0
2018-08-08T00:28:52.354Z,1000.7
2018-08-08T00:39:39.835Z,1000.5
2018-08-08T00:49:50.910Z,1000.5
2018-08-08T01:00:04.801Z,1000.3
2018-08-08T01:11:13.867Z,1000.2
2018-08-08T01:21:27.509Z,1001.7
2018-08-08T01:31:42.165Z,1001.6
2018-08-08T01:41:55.870Z,1001.8
2018-08-08T01:52:10.306Z,1001.8
2018-08-08T02:02:22.257Z,1001.6
2018-08-08T02:12:36.885Z,1001.6
2018-08-08T02:23:22.540Z,1000.9
2018-08-08T02:44:22.177Z,1001.0
2018-08-08T02:54:36.649Z,1001.1
2018-08-08T03:04:50.947Z,1001.3
2018-08-08T03:15:05.532Z,1001.2
2018-08-08T03:25:19.589Z,1001.4
2018-08-08T03:35:35.460Z,1002.1
2018-08-08T03:45:50.334Z,1002.3
2018-08-08T03:56:04.409Z,1002.1
2018-08-08T04:17:08.822Z,1003.2
2018-08-08T04:27:23.145Z,1003.3
2018-08-08T04:38:12.049Z,1003.6
2018-08-08T04:48:24.550Z,1003.9
2018-08-08T04:58:38.520Z,1003.9
2018-08-08T05:08:53.676Z,1003.9
2018-08-08T05:19:08.597Z,1004.0
2018-08-08T05:29:23.959Z,1004.0
2018-08-08T05:39:39.025Z,1004.0
2018-08-08T05:49:53.668Z,1004.0
2018-08-08T06:00:39.118Z,1004.0
2018-08-08T06:11:24.780Z,1004.2
2018-08-08T06:22:11.639Z,1004.3
2018-08-08T06:32:26.171Z,1004.1
2018-08-08T06:42:45.379Z,1004.4
2018-08-08T06:52:59.761Z,1004.4
2018-08-08T07:03:11.679Z,1004.2
2018-08-08T07:13:25.849Z,1004.2
2018-08-08T07:23:40.351Z,1004.1
2018-08-08T07:33:54.632Z,1004.1
2018-08-08T07:44:08.700Z,1004.3
2018-08-08T07:54:23.011Z,1004.4
2018-08-08T08:04:37.173Z,1004.2
2018-08-08T08:15:22.487Z,1004.2
2018-08-08T08:25:36.157Z,1004.3
2018-08-08T08:35:50.597Z,1004.5
2018-08-08T08:46:04.670Z,1004.4
2018-08-08T08:56:18.347Z,1004.4
2018-08-08T09:06:31.992Z,1004.5
2018-08-08T09:16:46.845Z,1004.6
2018-08-08T09:27:01.171Z,1004.8
2018-08-08T09:37:15.393Z,1004.9
2018-08-08T09:47:29.811Z,1004.8
2018-08-08T09:58:15.856Z,1005.0
2018-08-08T10:08:29.900Z,1005.1
2018-08-08T10:18:44.522Z,1005.4
2018-08-08T10:28:58.637Z,1005.8
2018-08-08T10:39:12.936Z,1005.5
2018-08-08T10:50:00.214Z,1005.8
2018-08-08T11:00:12.459Z,1006.0
2018-08-08T11:10:24.750Z,1006.2
2018-08-08T11:20:38.704Z,1006.5
2018-08-08T11:30:54.545Z,1006.3
2018-08-08T11:41:08.373Z,1006.2
2018-08-08T11:51:22.682Z,1006.7
2018-08-08T12:02:11.545Z,1006.8
2018-08-08T12:31:51.371Z,1007.2
2018-08-08T12:42:05.918Z,1007.3
2018-08-08T12:52:17.878Z,1007.5
2018-08-08T13:03:45.803Z,1007.7
2018-08-08T13:24:45.232Z,1007.9
2018-08-08T13:34:56.342Z,1008.0
2018-08-08T13:45:10.661Z,1008.0
2018-08-08T13:55:24.883Z,1008.1
2018-08-08T14:05:39.085Z,1008.2
2018-08-08T14:15:53.251Z,1008.2
2018-08-08T14:26:05.329Z,1008.2
2018-08-08T14:36:19.748Z,1008.4
2018-08-08T14:46:33.895Z,1008.3
2018-08-08T14:56:48.335Z,1008.3
2018-08-08T15:07:04.926Z,1008.4
2018-08-08T15:17:49.914Z,1008.4
2018-08-08T15:28:03.460Z,1008.5
2018-08-08T15:38:19.350Z,1008.5
2018-08-08T15:48:33.990Z,1008.5
2018-08-08T15:58:48.230Z,1008.6
2018-08-08T16:09:00.301Z,1008.5
2018-08-08T16:19:55.577Z,1008.7
2018-08-08T16:30:40.455Z,1008.8
2018-08-08T16:40:55.059Z,1008.9
2018-08-08T16:51:09.281Z,1008.9
2018-08-08T17:01:23.139Z,1008.8
2018-08-08T17:11:37.302Z,1008.9
2018-08-08T17:22:23.165Z,1008.9
2018-08-08T17:32:37.805Z,1008.9
2018-08-08T17:42:51.721Z,1009.0
2018-08-08T17:53:05.835Z,1009.1
2018-08-08T18:03:20.119Z,1009.1
2018-08-08T18:13:34.390Z,1009.1
2018-08-08T18:23:50.713Z,1009.1
2018-08-08T18:34:05.339Z,1009.1
2018-08-08T18:44:23.563Z,1009.2
2018-08-08T18:54:37.080Z,1009.3
2018-08-08T19:04:51.269Z,1009.5
2018-08-08T19:25:21.913Z,1009.7
2018-08-08T19:35:37.185Z,1009.8
2018-08-08T19:45:52.870Z,1009.9
2018-08-08T19:56:14.673Z,1010.1
2018-08-08T20:07:00.768Z,1010.1
2018-08-08T20:17:14.175Z,1010.3
2018-08-08T20:27:29.283Z,1010.4
2018-08-08T20:37:47.901Z,1010.5
2018-08-08T20:58:19.760Z,1010.7
2018-08-08T21:08:33.872Z,1010.7
2018-08-08T21:18:48.281Z,1010.8
2018-08-08T21:29:03.077Z,1010.8
2018-08-08T21:39:17.582Z,1010.8
2018-08-08T21:50:02.544Z,1010.8
2018-08-08T22:00:20.171Z,1010.9
2018-08-08T22:10:34.166Z,1011.0
2018-08-08T22:20:50.020Z,1010.9
2018-08-08T22:31:03.738Z,1011.0
2018-08-08T22:41:18.380Z,1010.9
2018-08-08T22:52:04.469Z,1011.1
2018-08-08T23:02:18.409Z,1011.1
2018-08-08T23:12:32.896Z,1011.2
2018-08-08T23:22:59.390Z,1011.1
2018-08-08T23:33:48.274Z,1011.2
2018-08-08T23:44:01.757Z,1011.2
2018-08-08T23:54:17.710Z,1011.2
